createdAt,value
2023-07-28T00:08:21.188Z,3.30
2023-07-28T00:14:34.814Z,3.80
2023-07-28T00:17:44.838Z,3.65
2023-07-28T00:20:06.423Z,3.42
2023-07-28T00:22:54.448Z,3.28
2023-07-28T00:25:23.471Z,3.78
2023-07-28T00:27:50.696Z,3.60
2023-07-28T00:30:18.215Z,3.40
2023-07-28T00:32:45.647Z,3.35
2023-07-28T00:35:12.905Z,3.42
2023-07-28T00:37:40.114Z,3.85
2023-07-28T00:40:11.222Z,3.33
2023-07-28T00:42:38.668Z,3.35
2023-07-28T00:45:06.611Z,3.45
2023-07-28T00:47:33.904Z,3.50
2023-07-28T00:50:01.189Z,3.60
2023-07-28T00:52:28.433Z,3.30
2023-07-28T00:54:55.849Z,3.10
2023-07-28T00:57:23.044Z,3.50
2023-07-28T00:59:51.737Z,3.30
2023-07-28T01:02:21.503Z,3.13
2023-07-28T01:04:49.433Z,2.67
2023-07-28T01:08:30.009Z,2.88
2023-07-28T01:11:03.382Z,2.90
2023-07-28T01:14:01.472Z,3.88
2023-07-28T01:17:13.332Z,2.65
2023-07-28T01:20:23.440Z,2.72
2023-07-28T01:23:49.479Z,2.40
2023-07-28T01:26:17.395Z,2.75
2023-07-28T01:28:44.763Z,2.22
2023-07-28T01:31:13.741Z,2.70
2023-07-28T01:33:54.082Z,3.42
2023-07-28T01:36:23.927Z,2.38
2023-07-28T01:38:56.685Z,2.70
2023-07-28T01:41:27.181Z,2.80
2023-07-28T01:44:26.067Z,2.63
2023-07-28T01:47:06.328Z,2.30
2023-07-28T01:49:39.035Z,2.40
2023-07-28T01:52:25.023Z,2.15
2023-07-28T01:55:14.649Z,2.50
2023-07-28T01:58:01.320Z,2.30
2023-07-28T02:01:01.285Z,2.25
2023-07-28T02:03:36.568Z,2.20
2023-07-28T02:06:04.359Z,2.42
2023-07-28T02:08:32.091Z,2.08
2023-07-28T02:11:00.236Z,2.03
2023-07-28T02:13:37.569Z,2.40
2023-07-28T02:16:15.426Z,2.10
2023-07-28T02:18:52.465Z,1.88
2023-07-28T02:21:34.931Z,1.88
2023-07-28T02:24:06.424Z,1.80
2023-07-28T02:26:42.191Z,1.90
2023-07-28T02:29:16.806Z,1.45
2023-07-28T02:32:00.544Z,1.45
2023-07-28T02:34:32.271Z,1.17
2023-07-28T02:37:10.917Z,1.33
2023-07-28T02:39:49.138Z,1.50
2023-07-28T02:42:22.291Z,1.20
2023-07-28T02:45:06.395Z,1.55
2023-07-28T02:47:49.628Z,1.05
2023-07-28T02:50:18.882Z,1.08
2023-07-28T02:52:55.268Z,0.90
2023-07-28T02:58:26.171Z,1.08
2023-07-28T03:00:53.826Z,0.80
2023-07-28T03:03:41.579Z,0.70
2023-07-28T03:06:16.392Z,1.17
2023-07-28T03:08:49.940Z,0.90
2023-07-28T03:11:41.473Z,0.95
2023-07-28T03:14:14.309Z,1.05
2023-07-28T03:16:49.920Z,0.90
2023-07-28T03:19:22.180Z,0.82
2023-07-28T03:21:51.004Z,0.80
2023-07-28T03:24:26.840Z,1.02
2023-07-28T03:26:59.173Z,0.80
2023-07-28T03:29:27.855Z,0.90
2023-07-28T03:31:59.751Z,0.88
2023-07-28T03:34:30.425Z,0.90
2023-07-28T03:37:01.445Z,0.98
2023-07-28T03:39:28.941Z,0.82
2023-07-28T03:42:00.703Z,0.90
2023-07-28T03:44:29.194Z,0.80
2023-07-28T03:49:33.803Z,0.88
2023-07-28T03:52:04.823Z,0.88
2023-07-28T03:54:45.340Z,0.90
2023-07-28T03:57:23.522Z,0.70
2023-07-28T04:00:03.640Z,0.90
2023-07-28T04:02:49.118Z,0.80
2023-07-28T04:05:20.637Z,0.90
2023-07-28T04:08:03.432Z,0.75
2023-07-28T04:10:42.372Z,0.82
2023-07-28T04:13:22.869Z,0.80
2023-07-28T04:15:56.051Z,0.90
2023-07-28T04:18:24.643Z,0.80
2023-07-28T04:20:56.696Z,0.90
2023-07-28T04:23:26.562Z,0.85
2023-07-28T04:28:59.548Z,0.77
2023-07-28T04:31:45.011Z,0.90
2023-07-28T04:34:17.812Z,0.80
2023-07-28T04:37:14.805Z,0.90
2023-07-28T04:39:59.757Z,1.13
2023-07-28T04:42:33.363Z,0.80
2023-07-28T04:45:13.637Z,1.00
2023-07-28T04:47:47.010Z,0.80
2023-07-28T04:50:16.190Z,0.70
2023-07-28T04:53:21.702Z,0.75
2023-07-28T04:56:20.658Z,0.70
2023-07-28T05:01:40.515Z,0.63
2023-07-28T05:04:18.536Z,0.60
2023-07-28T05:07:20.234Z,0.80
2023-07-28T05:10:00.194Z,0.80
2023-07-28T05:12:36.090Z,0.70
2023-07-28T05:15:16.551Z,0.60
2023-07-28T05:17:45.863Z,0.60
2023-07-28T05:20:33.956Z,0.70
2023-07-28T05:23:18.089Z,0.75
2023-07-28T05:25:53.886Z,0.80
2023-07-28T05:28:42.169Z,1.08
2023-07-28T05:31:17.104Z,0.80
2023-07-28T05:33:55.226Z,0.70
2023-07-28T05:36:30.145Z,0.88
2023-07-28T05:39:18.891Z,0.70
2023-07-28T05:42:03.710Z,0.70
2023-07-28T05:45:16.813Z,1.02
2023-07-28T05:47:48.548Z,0.80
2023-07-28T05:50:20.208Z,0.80
2023-07-28T05:52:52.694Z,1.00
2023-07-28T05:55:32.820Z,0.80
2023-07-28T05:58:17.115Z,0.80
2023-07-28T06:01:15.788Z,0.90
2023-07-28T06:04:18.686Z,0.80
2023-07-28T06:07:14.271Z,0.80
2023-07-28T06:09:49.773Z,0.70
2023-07-28T06:12:30.642Z,0.80
2023-07-28T06:15:00.140Z,0.70
2023-07-28T06:21:24.603Z,0.60
2023-07-28T06:29:47.390Z,0.60
2023-07-28T06:32:34.345Z,0.60
2023-07-28T06:35:02.948Z,0.60
2023-07-28T06:37:50.017Z,0.60
2023-07-28T06:40:50.424Z,0.50
2023-07-28T06:43:43.187Z,0.50
2023-07-28T06:46:31.372Z,0.60
2023-07-28T06:49:47.350Z,0.50
2023-07-28T06:52:42.638Z,0.50
2023-07-28T06:59:13.769Z,0.70
2023-07-28T07:06:27.444Z,0.70
2023-07-28T07:09:56.144Z,0.68
2023-07-28T07:17:44.917Z,0.77
2023-07-28T07:20:19.445Z,0.75
2023-07-28T07:27:40.813Z,0.57
2023-07-28T07:30:59.847Z,0.80
2023-07-28T15:49:38.290Z,1.30
2023-07-28T15:52:16.788Z,1.60
2023-07-28T15:54:47.855Z,1.30
2023-07-28T15:57:15.635Z,1.60
2023-07-28T15:59:48.714Z,1.50
2023-07-28T16:02:48.258Z,1.50
2023-07-28T16:05:28.503Z,1.40
2023-07-28T16:09:15.169Z,1.20
2023-07-28T16:11:58.109Z,1.45
2023-07-28T16:14:25.661Z,1.30
2023-07-28T16:16:53.107Z,1.40
2023-07-28T16:22:09.574Z,1.13
2023-07-28T16:24:36.978Z,1.15
2023-07-28T16:27:13.367Z,1.40
2023-07-28T16:33:02.156Z,1.40
2023-07-28T16:35:44.864Z,1.35
2023-07-28T16:38:41.813Z,1.48
2023-07-28T16:41:15.991Z,1.20
2023-07-28T16:43:53.350Z,1.60
2023-07-28T16:46:36.913Z,1.20
2023-07-28T16:49:58.371Z,1.27
2023-07-28T16:52:13.227Z,1.00
2023-07-28T16:54:51.541Z,1.40
2023-07-28T16:57:19.894Z,1.40
2023-07-28T17:03:05.786Z,1.20
2023-07-28T17:08:31.305Z,1.30
2023-07-28T17:11:14.477Z,1.60
2023-07-28T17:13:45.738Z,1.33
2023-07-28T17:16:21.323Z,1.40
2023-07-28T17:18:54.110Z,1.33
2023-07-28T17:21:28.897Z,1.10
2023-07-28T17:24:07.316Z,1.10
2023-07-28T17:26:59.582Z,1.02
2023-07-28T17:29:35.133Z,1.23
2023-07-28T17:32:02.468Z,1.30
2023-07-28T17:34:49.431Z,1.42
2023-07-28T17:37:58.781Z,1.55
2023-07-28T17:40:53.725Z,1.40
2023-07-28T17:43:33.076Z,1.20
2023-07-28T17:46:22.599Z,1.20
2023-07-28T17:48:53.749Z,1.50
2023-07-28T17:57:31.745Z,1.10
2023-07-28T18:00:02.440Z,1.42
2023-07-28T18:02:32.877Z,1.15
2023-07-28T18:05:06.017Z,1.00
2023-07-28T18:07:34.100Z,1.20
2023-07-28T18:10:04.630Z,0.80
2023-07-28T18:12:41.003Z,1.05
2023-07-28T18:15:24.895Z,1.15
2023-07-28T18:18:16.422Z,0.90
2023-07-28T18:20:52.158Z,1.00
2023-07-28T18:23:19.672Z,0.98
2023-07-28T18:25:53.480Z,1.08
2023-07-28T18:28:33.528Z,1.10
2023-07-28T18:31:15.157Z,1.10
2023-07-28T18:33:54.519Z,1.00
2023-07-28T18:36:30.197Z,0.90
2023-07-28T18:39:00.974Z,1.20
2023-07-28T18:41:34.061Z,1.30
2023-07-28T18:44:07.896Z,1.05
2023-07-28T18:47:04.201Z,1.50
2023-07-28T18:49:44.186Z,1.00
2023-07-28T18:55:18.510Z,0.90
2023-07-28T18:58:06.075Z,0.93
2023-07-28T19:00:38.267Z,1.00
2023-07-28T19:03:06.424Z,1.05
2023-07-28T19:06:20.696Z,1.00
2023-07-28T19:08:53.310Z,1.10
2023-07-28T19:11:20.890Z,0.90
2023-07-28T19:13:52.873Z,1.20
2023-07-28T19:16:20.028Z,1.10
2023-07-28T19:18:47.624Z,1.00
2023-07-28T19:21:17.983Z,1.20
2023-07-28T19:23:45.872Z,0.90
2023-07-28T19:26:13.161Z,1.00
2023-07-28T19:28:40.842Z,1.00
2023-07-28T19:31:08.132Z,1.17
2023-07-28T19:33:36.148Z,0.85
2023-07-28T19:36:04.437Z,1.10
2023-07-28T19:38:31.589Z,0.90
2023-07-28T19:40:59.056Z,0.98
2023-07-28T19:43:26.185Z,1.02
2023-07-28T19:45:56.560Z,0.90
2023-07-28T19:48:24.431Z,1.10
2023-07-28T19:50:51.733Z,1.02
2023-07-28T19:53:19.457Z,1.00
2023-07-28T19:55:47.552Z,1.10
2023-07-28T19:58:15.354Z,1.20
2023-07-28T20:00:42.534Z,0.85
2023-07-28T20:03:10.144Z,0.93
2023-07-28T20:05:39.760Z,1.10
2023-07-28T20:08:06.972Z,1.10
2023-07-28T20:10:35.932Z,1.00
2023-07-28T20:13:18.886Z,0.90
2023-07-28T20:15:56.567Z,0.88
2023-07-28T20:18:24.199Z,1.25
2023-07-28T20:20:54.765Z,0.90
2023-07-28T20:23:27.898Z,1.10
2023-07-28T20:26:01.986Z,1.08
2023-07-28T20:28:29.776Z,1.10
2023-07-28T20:31:00.227Z,0.80
2023-07-28T20:33:31.198Z,0.90
2023-07-28T20:35:58.601Z,0.90
2023-07-28T20:38:26.171Z,0.93
2023-07-28T20:40:57.462Z,0.90
2023-07-28T20:43:32.683Z,1.00
2023-07-28T20:46:00.861Z,0.82
2023-07-28T20:48:42.208Z,1.42
2023-07-28T20:51:16.581Z,1.20
2023-07-28T20:53:43.902Z,0.90
2023-07-28T20:56:14.400Z,1.08
2023-07-28T20:58:43.051Z,1.10
2023-07-28T21:01:10.617Z,1.02
2023-07-28T21:03:48.458Z,0.95
2023-07-28T21:06:21.733Z,0.90
2023-07-28T21:08:52.086Z,1.10
2023-07-28T21:11:27.116Z,1.00
2023-07-28T21:13:57.767Z,0.88
2023-07-28T21:16:25.413Z,1.48
2023-07-28T21:18:55.340Z,0.90
2023-07-28T21:21:34.487Z,1.20
2023-07-28T21:24:03.417Z,0.90
2023-07-28T21:29:41.788Z,4.28
2023-07-28T21:32:32.128Z,1.80
2023-07-28T21:35:32.168Z,0.88
2023-07-28T21:38:19.066Z,1.65
2023-07-28T21:43:49.334Z,2.15
2023-07-28T21:46:25.351Z,1.05
2023-07-28T21:48:55.100Z,1.15
2023-07-28T21:53:58.390Z,1.17
2023-07-28T21:56:37.040Z,3.50
2023-07-28T21:59:11.408Z,2.17
2023-07-28T22:01:46.406Z,2.10
2023-07-28T22:04:14.192Z,1.35
2023-07-28T22:06:41.719Z,1.20
2023-07-28T22:09:11.087Z,1.20
2023-07-28T22:11:52.458Z,1.15
2023-07-28T22:14:26.245Z,1.10
2023-07-28T22:16:57.881Z,1.00
2023-07-28T22:19:38.492Z,1.98
2023-07-28T22:22:11.909Z,1.10
2023-07-28T22:24:39.928Z,1.65
2023-07-28T22:27:18.597Z,1.10
2023-07-28T22:29:56.545Z,1.10
2023-07-28T22:36:11.182Z,1.10
2023-07-28T22:39:07.893Z,0.98
2023-07-28T22:42:24.405Z,1.05
2023-07-28T22:44:56.086Z,1.10
2023-07-28T22:47:44.914Z,1.35
2023-07-28T22:50:23.362Z,1.58
2023-07-28T22:55:39.407Z,1.10
2023-07-28T22:58:07.093Z,1.20
2023-07-28T23:00:41.202Z,1.05
2023-07-28T23:03:09.088Z,1.20
2023-07-28T23:05:38.980Z,1.00
2023-07-28T23:08:06.301Z,1.48
2023-07-28T23:10:33.696Z,1.20
2023-07-28T23:13:00.795Z,1.15
2023-07-28T23:15:28.225Z,1.00
2023-07-28T23:17:55.710Z,1.50
2023-07-28T23:20:22.965Z,1.67
2023-07-28T23:22:50.194Z,1.30
2023-07-28T23:25:17.566Z,1.10
2023-07-28T23:27:47.006Z,1.73
2023-07-28T23:30:14.304Z,1.50
2023-07-28T23:32:41.831Z,1.42
2023-07-28T23:35:09.601Z,1.40
2023-07-28T23:37:36.851Z,1.73
2023-07-28T23:40:04.633Z,1.23
2023-07-28T23:42:32.499Z,1.40
2023-07-28T23:44:59.862Z,1.23
2023-07-28T23:47:27.281Z,1.38
2023-07-28T23:49:54.540Z,1.48
2023-07-28T23:52:22.250Z,1.23
2023-07-28T23:54:49.515Z,1.00
2023-07-28T23:57:16.892Z,1.35
2023-07-28T23:59:45.137Z,1.13
